createdAt,value
2019-05-05T00:01:17.372Z,6.10
2019-05-05T00:03:24.891Z,11.07
2019-05-05T00:05:29.839Z,8.40
2019-05-05T00:07:34.980Z,9.23
2019-05-05T00:09:38.771Z,7.63
2019-05-05T00:11:44.517Z,6.53
2019-05-05T00:13:49.866Z,7.80
2019-05-05T00:16:11.646Z,7.40
2019-05-05T00:18:16.523Z,7.23
2019-05-05T00:20:20.181Z,7.20
2019-05-05T00:22:24.526Z,15.43
2019-05-05T00:24:28.477Z,6.77
2019-05-05T00:26:32.310Z,7.10
2019-05-05T00:28:35.962Z,9.90
2019-05-05T00:30:41.320Z,9.60
2019-05-05T00:32:44.946Z,9.50
2019-05-05T00:34:48.602Z,10.27
2019-05-05T00:36:52.214Z,8.57
2019-05-05T00:38:56.019Z,12.60
2019-05-05T00:40:59.808Z,8.70
2019-05-05T00:43:05.302Z,9.87
2019-05-05T00:45:09.185Z,8.67
2019-05-05T00:47:17.618Z,14.00
2019-05-05T00:49:21.335Z,9.50
2019-05-05T00:51:24.906Z,7.60
2019-05-05T00:53:28.603Z,9.37
2019-05-05T00:55:35.325Z,8.40
2019-05-05T00:57:39.094Z,9.10
2019-05-05T00:59:42.690Z,9.07
2019-05-05T01:01:55.259Z,15.83
2019-05-05T01:04:00.685Z,9.60
2019-05-05T01:06:07.268Z,10.50
2019-05-05T01:08:15.503Z,10.53
2019-05-05T01:10:19.354Z,10.20
2019-05-05T01:12:24.339Z,9.63
2019-05-05T01:14:28.194Z,9.60
2019-05-05T01:16:31.858Z,9.90
2019-05-05T01:18:35.707Z,10.87
2019-05-05T01:20:39.459Z,9.87
2019-05-05T01:22:44.840Z,9.00
2019-05-05T01:24:48.707Z,9.30
2019-05-05T01:26:52.465Z,8.80
2019-05-05T01:28:56.396Z,10.13
2019-05-05T01:31:01.818Z,10.63
2019-05-05T01:33:19.309Z,7.50
2019-05-05T01:35:24.837Z,8.60
2019-05-05T01:37:35.819Z,9.47
2019-05-05T01:39:49.954Z,7.97
2019-05-05T01:42:04.895Z,12.63
2019-05-05T01:44:08.855Z,10.67
2019-05-05T01:46:14.300Z,10.73
2019-05-05T01:48:18.131Z,9.50
2019-05-05T01:50:21.776Z,8.73
2019-05-05T01:52:25.571Z,7.80
2019-05-05T01:54:29.310Z,10.70
2019-05-05T01:56:35.208Z,12.50
2019-05-05T01:58:39.352Z,8.50
2019-05-05T02:00:45.079Z,10.20
2019-05-05T02:02:48.529Z,11.67
2019-05-05T02:04:52.302Z,10.37
2019-05-05T02:06:56.062Z,9.73
2019-05-05T02:08:59.862Z,9.23
2019-05-05T02:11:05.221Z,10.20
2019-05-05T02:13:09.015Z,10.73
2019-05-05T02:15:14.723Z,12.57
2019-05-05T02:17:18.326Z,9.97
2019-05-05T02:19:22.115Z,11.40
2019-05-05T02:21:25.796Z,12.60
2019-05-05T02:23:29.536Z,13.57
2019-05-05T02:25:34.585Z,10.20
2019-05-05T02:27:38.432Z,9.80
2019-05-05T02:29:44.678Z,10.57
2019-05-05T02:32:06.699Z,10.30
2019-05-05T02:34:11.470Z,12.83
2019-05-05T02:36:15.964Z,10.57
2019-05-05T02:38:21.090Z,12.37
2019-05-05T02:40:25.053Z,13.60
2019-05-05T02:42:29.064Z,21.77
2019-05-05T02:44:34.788Z,27.23
2019-05-05T02:46:46.352Z,16.10
2019-05-05T02:48:55.144Z,12.40
2019-05-05T02:51:02.177Z,10.10
2019-05-05T02:53:04.956Z,11.93
2019-05-05T02:55:10.038Z,13.00
2019-05-05T02:57:15.062Z,13.60
2019-05-05T02:59:23.775Z,10.13
2019-05-05T03:01:30.530Z,12.07
2019-05-05T03:03:37.432Z,10.10
2019-05-05T03:05:42.990Z,12.30
2019-05-05T03:07:46.644Z,13.13
2019-05-05T03:09:51.533Z,10.27
2019-05-05T03:11:57.896Z,10.53
2019-05-05T03:14:04.544Z,9.53
2019-05-05T03:16:19.966Z,9.80
2019-05-05T03:18:26.449Z,9.47
2019-05-05T03:20:29.395Z,12.63
2019-05-05T03:22:34.074Z,10.07
2019-05-05T03:24:38.613Z,10.97
2019-05-05T03:26:44.385Z,10.33
2019-05-05T03:28:50.293Z,13.73
2019-05-05T03:30:55.705Z,9.40
2019-05-05T03:32:59.456Z,9.20
2019-05-05T03:35:04.317Z,10.53
2019-05-05T03:37:08.800Z,12.80
2019-05-05T03:39:14.457Z,9.83
2019-05-05T03:41:23.838Z,10.30
2019-05-05T03:43:29.528Z,10.33
2019-05-05T03:45:34.909Z,11.63
2019-05-05T03:47:38.890Z,9.90
2019-05-05T03:49:44.214Z,19.13
2019-05-05T03:51:48.108Z,12.93
2019-05-05T03:53:53.547Z,13.13
2019-05-05T03:55:57.858Z,8.43
2019-05-05T03:58:01.713Z,10.63
2019-05-05T04:00:10.244Z,10.30
2019-05-05T04:02:24.540Z,12.73
2019-05-05T04:04:29.938Z,13.53
2019-05-05T04:06:38.119Z,13.60
2019-05-05T04:08:44.401Z,13.90
2019-05-05T04:10:48.285Z,11.90
2019-05-05T04:12:53.959Z,13.03
2019-05-05T04:14:59.189Z,14.63
2019-05-05T04:17:10.872Z,12.83
2019-05-05T04:19:23.710Z,13.53
2019-05-05T04:21:33.586Z,11.00
2019-05-05T04:23:33.514Z,11.97
2019-05-05T04:25:37.388Z,12.60
2019-05-05T04:27:41.158Z,15.40
2019-05-05T04:29:44.963Z,16.00
2019-05-05T04:31:48.600Z,16.60
2019-05-05T04:33:53.846Z,14.60
2019-05-05T04:35:57.644Z,15.37
2019-05-05T04:38:01.347Z,13.97
2019-05-05T04:40:05.181Z,15.20
2019-05-05T04:42:09.000Z,18.03
2019-05-05T04:44:14.834Z,18.20
2019-05-05T04:46:18.175Z,14.80
2019-05-05T04:48:24.227Z,15.20
2019-05-05T04:50:34.386Z,15.43
2019-05-05T04:52:37.718Z,15.73
2019-05-05T04:54:43.936Z,14.13
2019-05-05T04:56:47.816Z,19.10
2019-05-05T04:58:51.570Z,14.10
2019-05-05T05:00:55.238Z,17.93
2019-05-05T05:03:16.836Z,17.33
2019-05-05T05:05:34.249Z,12.83
2019-05-05T05:07:37.932Z,18.83
2019-05-05T05:09:43.368Z,14.80
2019-05-05T05:11:47.040Z,21.93
2019-05-05T05:13:50.768Z,18.27
2019-05-05T05:15:54.535Z,19.20
2019-05-05T05:18:17.186Z,17.90
2019-05-05T05:20:20.905Z,19.50
2019-05-05T05:22:24.573Z,17.53
2019-05-05T05:24:28.228Z,18.60
2019-05-05T05:26:33.589Z,18.33
2019-05-05T05:28:37.139Z,17.57
2019-05-05T05:30:40.940Z,19.93
2019-05-05T05:32:44.743Z,20.93
2019-05-05T05:34:48.386Z,21.50
2019-05-05T05:36:53.647Z,19.80
2019-05-05T05:38:59.141Z,19.40
2019-05-05T05:41:13.800Z,19.23
2019-05-05T05:43:21.848Z,21.07
2019-05-05T05:45:29.837Z,21.10
2019-05-05T05:47:53.653Z,20.97
2019-05-05T05:50:04.677Z,19.47
2019-05-05T05:52:15.904Z,26.90
2019-05-05T05:54:14.218Z,21.43
2019-05-05T05:56:17.789Z,25.27
2019-05-05T05:58:21.552Z,26.13
2019-05-05T06:00:25.568Z,30.67
2019-05-05T06:02:29.292Z,25.97
2019-05-05T06:04:34.061Z,27.80
2019-05-05T06:06:37.911Z,23.63
2019-05-05T06:08:43.818Z,28.10
2019-05-05T06:10:47.008Z,25.57
2019-05-05T06:12:50.695Z,24.63
2019-05-05T06:14:54.455Z,23.30
2019-05-05T06:16:58.193Z,24.43
2019-05-05T06:19:03.639Z,26.47
2019-05-05T06:21:07.547Z,25.03
2019-05-05T06:23:11.270Z,26.20
2019-05-05T06:25:16.084Z,23.73
2019-05-05T06:27:20.078Z,26.00
2019-05-05T06:29:23.954Z,25.07
2019-05-05T06:31:27.979Z,23.00
2019-05-05T06:33:31.625Z,21.60
2019-05-05T06:35:35.276Z,24.00
2019-05-05T06:37:41.068Z,25.13
2019-05-05T06:39:45.913Z,25.40
2019-05-05T06:41:56.869Z,27.20
2019-05-05T06:44:14.219Z,23.93
2019-05-05T06:46:19.664Z,21.83
2019-05-05T06:48:23.733Z,27.23
2019-05-05T06:50:27.481Z,22.77
2019-05-05T06:52:41.978Z,22.93
2019-05-05T06:54:36.674Z,23.40
2019-05-05T06:56:40.344Z,27.23
2019-05-05T06:58:44.827Z,23.63
2019-05-05T07:00:48.725Z,26.57
2019-05-05T07:02:54.057Z,24.60
2019-05-05T07:04:58.003Z,22.30
2019-05-05T07:07:01.718Z,20.50
2019-05-05T07:09:06.518Z,18.93
2019-05-05T07:11:10.320Z,18.23
2019-05-05T07:13:14.147Z,19.27
2019-05-05T07:15:17.909Z,16.40
2019-05-05T07:17:21.616Z,17.17
2019-05-05T07:19:25.349Z,12.30
2019-05-05T07:21:29.363Z,16.47
2019-05-05T07:23:34.054Z,10.73
2019-05-05T07:25:42.927Z,10.53
2019-05-05T07:27:44.285Z,11.80
2019-05-05T07:29:48.060Z,10.83
2019-05-05T07:31:51.806Z,9.43
2019-05-05T07:33:55.548Z,10.87
2019-05-05T07:36:06.003Z,11.47
2019-05-05T07:38:08.879Z,9.63
2019-05-05T07:40:13.683Z,9.73
2019-05-05T07:42:17.443Z,10.13
2019-05-05T07:44:26.589Z,7.63
2019-05-05T07:46:26.388Z,11.40
2019-05-05T07:48:30.081Z,5.03
2019-05-05T07:50:35.787Z,8.10
2019-05-05T07:52:39.099Z,10.00
2019-05-05T07:54:43.613Z,6.07
2019-05-05T07:56:47.356Z,4.70
2019-05-05T07:58:50.979Z,8.23
2019-05-05T08:00:54.805Z,6.23
2019-05-05T08:03:17.920Z,6.70
2019-05-05T08:05:21.655Z,4.47
2019-05-05T08:07:25.335Z,4.83
2019-05-05T08:09:29.003Z,7.63
2019-05-05T08:11:34.289Z,6.00
2019-05-05T08:13:38.220Z,10.00
2019-05-05T08:15:56.989Z,10.70
2019-05-05T08:17:50.672Z,5.53
2019-05-05T08:19:59.167Z,6.90
2019-05-05T08:22:03.705Z,6.10
2019-05-05T08:24:09.167Z,6.30
2019-05-05T08:26:23.680Z,5.77
2019-05-05T08:28:34.922Z,9.73
2019-05-05T08:30:46.238Z,4.87
2019-05-05T08:32:53.906Z,7.17
2019-05-05T08:35:00.731Z,7.30
2019-05-05T08:37:04.413Z,9.43
2019-05-05T08:39:08.173Z,5.23
2019-05-05T08:41:13.746Z,5.60
2019-05-05T08:43:17.094Z,6.90
2019-05-05T08:45:23.788Z,6.70
2019-05-05T08:47:28.177Z,10.07
2019-05-05T08:49:31.940Z,14.13
2019-05-05T08:51:35.581Z,8.40
2019-05-05T08:53:44.472Z,13.17
2019-05-05T08:55:44.504Z,5.63
2019-05-05T08:57:48.238Z,6.93
2019-05-05T08:59:54.316Z,8.90
2019-05-05T09:01:58.994Z,6.30
2019-05-05T09:04:04.110Z,12.60
2019-05-05T09:06:07.865Z,8.80
2019-05-05T09:08:13.641Z,9.00
2019-05-05T09:10:17.460Z,6.47
2019-05-05T09:12:21.119Z,7.50
2019-05-05T09:14:24.751Z,7.00
2019-05-05T09:16:28.412Z,8.73
2019-05-05T09:18:33.962Z,7.20
2019-05-05T09:20:37.496Z,5.70
2019-05-05T09:22:41.262Z,11.77
2019-05-05T09:24:46.658Z,8.27
2019-05-05T09:27:03.887Z,6.70
2019-05-05T09:29:27.097Z,7.33
2019-05-05T09:31:30.768Z,9.10
2019-05-05T09:33:34.387Z,8.63
2019-05-05T09:35:38.235Z,4.40
2019-05-05T09:37:44.181Z,7.00
2019-05-05T09:39:47.646Z,4.93
2019-05-05T09:41:53.468Z,9.10
2019-05-05T09:43:56.557Z,10.97
2019-05-05T09:46:00.308Z,8.43
2019-05-05T09:48:04.384Z,8.80
2019-05-05T09:50:08.401Z,9.57
2019-05-05T09:52:13.986Z,6.77
2019-05-05T09:54:17.638Z,5.30
2019-05-05T09:56:23.511Z,5.60
2019-05-05T09:58:26.655Z,12.30
2019-05-05T10:00:33.665Z,8.83
2019-05-05T10:02:37.511Z,9.90
2019-05-05T10:04:41.204Z,14.70
2019-05-05T10:06:47.683Z,9.43
2019-05-05T10:08:50.240Z,8.07
2019-05-05T10:10:54.770Z,11.63
2019-05-05T10:12:58.484Z,8.20
2019-05-05T10:15:07.182Z,5.83
2019-05-05T10:17:07.715Z,7.90
2019-05-05T10:19:13.773Z,5.17
2019-05-05T10:21:17.862Z,6.67
2019-05-05T10:23:23.641Z,8.33
2019-05-05T10:25:29.015Z,7.73
2019-05-05T10:27:44.311Z,6.77
2019-05-05T10:29:37.882Z,6.23
2019-05-05T10:31:43.547Z,6.97
2019-05-05T10:33:48.546Z,9.13
2019-05-05T10:35:54.099Z,5.90
2019-05-05T10:37:57.694Z,10.13
2019-05-05T10:40:03.523Z,5.50
2019-05-05T10:42:06.657Z,7.63
2019-05-05T10:44:10.429Z,5.13
2019-05-05T10:46:15.482Z,5.23
2019-05-05T10:48:19.028Z,8.00
2019-05-05T10:50:24.693Z,5.53
2019-05-05T10:52:28.147Z,5.37
2019-05-05T10:54:43.187Z,5.10
2019-05-05T10:56:37.159Z,5.37
2019-05-05T10:58:40.824Z,6.30
2019-05-05T11:00:50.712Z,6.70
2019-05-05T11:02:54.386Z,6.97
2019-05-05T11:04:58.102Z,6.20
2019-05-05T11:07:03.984Z,7.13
2019-05-05T11:09:08.324Z,3.87
2019-05-05T11:11:13.717Z,8.40
2019-05-05T11:13:18.675Z,5.50
2019-05-05T11:15:22.354Z,7.07
2019-05-05T11:17:26.071Z,6.63
2019-05-05T11:19:29.797Z,10.00
2019-05-05T11:21:34.174Z,6.87
2019-05-05T11:23:37.992Z,8.50
2019-05-05T11:25:41.650Z,7.67
2019-05-05T11:27:45.549Z,4.47
2019-05-05T11:30:06.682Z,4.40
2019-05-05T11:32:15.286Z,8.47
2019-05-05T11:34:20.792Z,5.90
2019-05-05T11:36:29.149Z,7.60
2019-05-05T11:38:33.854Z,10.43
2019-05-05T11:40:38.272Z,6.57
2019-05-05T11:42:41.994Z,8.40
2019-05-05T11:44:47.417Z,10.80
2019-05-05T11:46:51.076Z,14.23
2019-05-05T11:48:54.722Z,8.97
2019-05-05T11:50:58.592Z,12.23
2019-05-05T11:53:03.895Z,7.40
2019-05-05T11:55:12.050Z,8.87
2019-05-05T11:57:13.920Z,5.33
2019-05-05T11:59:17.537Z,8.17
2019-05-05T12:01:21.645Z,6.80
2019-05-05T12:03:25.436Z,7.17
2019-05-05T12:05:29.116Z,7.73
2019-05-05T12:07:34.214Z,6.20
2019-05-05T12:09:40.159Z,4.83
2019-05-05T12:11:43.928Z,11.40
2019-05-05T12:13:47.777Z,8.93
2019-05-05T12:15:53.844Z,10.93
2019-05-05T12:17:57.707Z,6.30
2019-05-05T12:20:01.931Z,7.50
2019-05-05T12:22:05.718Z,7.73
2019-05-05T12:24:11.059Z,8.60
2019-05-05T12:26:34.978Z,10.47
2019-05-05T12:28:44.028Z,12.17
2019-05-05T12:30:47.780Z,7.90
2019-05-05T12:32:51.682Z,6.83
2019-05-05T12:34:55.357Z,6.60
2019-05-05T12:36:58.970Z,10.30
2019-05-05T12:39:04.394Z,8.70
2019-05-05T12:41:08.108Z,13.20
2019-05-05T12:43:14.090Z,14.07
2019-05-05T12:45:19.082Z,7.10
2019-05-05T12:47:30.160Z,5.90
2019-05-05T12:49:33.887Z,7.67
2019-05-05T12:51:37.754Z,8.90
2019-05-05T12:53:41.658Z,10.17
2019-05-05T12:55:45.275Z,11.53
2019-05-05T12:57:49.069Z,9.10
2019-05-05T12:59:53.641Z,10.53
2019-05-05T13:01:57.694Z,7.97
2019-05-05T13:04:03.448Z,8.10
2019-05-05T13:06:06.811Z,9.50
2019-05-05T13:08:10.945Z,9.00
2019-05-05T13:10:17.813Z,10.70
2019-05-05T13:12:23.984Z,7.03
2019-05-05T13:14:27.942Z,11.73
2019-05-05T13:16:31.588Z,7.50
2019-05-05T13:18:35.471Z,10.70
2019-05-05T13:20:46.716Z,7.77
2019-05-05T13:22:57.993Z,10.93
2019-05-05T13:25:07.709Z,10.00
2019-05-05T13:27:28.280Z,7.93
2019-05-05T13:29:33.729Z,8.40
2019-05-05T13:31:37.307Z,7.40
2019-05-05T13:33:40.962Z,8.53
2019-05-05T13:35:44.789Z,11.20
2019-05-05T13:37:48.456Z,8.30
2019-05-05T13:39:53.974Z,7.10
2019-05-05T13:41:58.516Z,11.13
2019-05-05T13:44:04.485Z,10.00
2019-05-05T13:46:18.981Z,11.43
2019-05-05T13:48:24.485Z,8.70
2019-05-05T13:50:30.172Z,7.23
2019-05-05T13:52:33.997Z,9.90
2019-05-05T13:54:37.897Z,11.90
2019-05-05T13:56:41.761Z,7.17
2019-05-05T13:58:45.770Z,8.17
2019-05-05T14:00:49.510Z,13.47
2019-05-05T14:02:54.469Z,6.60
2019-05-05T14:04:58.410Z,11.50
2019-05-05T14:07:04.011Z,6.13
2019-05-05T14:09:07.970Z,7.93
2019-05-05T14:11:13.997Z,9.50
2019-05-05T14:13:16.958Z,6.63
2019-05-05T14:15:20.935Z,8.63
2019-05-05T14:17:24.662Z,10.17
2019-05-05T14:19:28.356Z,9.73
2019-05-05T14:21:33.820Z,6.83
2019-05-05T14:23:39.075Z,9.90
2019-05-05T14:25:44.051Z,21.37
2019-05-05T14:27:47.952Z,14.07
2019-05-05T14:29:58.817Z,29.17
2019-05-05T14:32:02.466Z,8.00
2019-05-05T14:34:10.980Z,12.67
2019-05-05T14:36:34.703Z,8.87
2019-05-05T14:38:44.365Z,10.70
2019-05-05T14:40:48.289Z,12.67
2019-05-05T14:42:53.899Z,7.80
2019-05-05T14:44:57.342Z,12.90
2019-05-05T14:47:01.306Z,15.20
2019-05-05T14:49:05.791Z,11.03
2019-05-05T14:51:09.857Z,9.60
2019-05-05T14:53:14.530Z,11.67
2019-05-05T14:55:18.537Z,6.43
2019-05-05T14:57:24.525Z,7.23
2019-05-05T14:59:29.884Z,8.20
2019-05-05T15:01:34.440Z,8.80
2019-05-05T15:03:38.410Z,7.33
2019-05-05T15:05:49.736Z,9.13
2019-05-05T15:08:10.080Z,14.07
2019-05-05T15:10:27.447Z,8.77
2019-05-05T15:12:34.198Z,10.17
2019-05-05T15:14:38.118Z,4.30
2019-05-05T15:16:43.668Z,7.20
2019-05-05T15:18:47.115Z,5.77
2019-05-05T15:20:51.828Z,5.87
2019-05-05T15:22:55.754Z,7.73
2019-05-05T15:24:59.523Z,7.70
2019-05-05T15:27:03.793Z,6.27
2019-05-05T15:29:18.027Z,11.13
2019-05-05T15:31:23.674Z,7.30
2019-05-05T15:33:27.343Z,6.47
2019-05-05T15:35:33.851Z,13.33
2019-05-05T15:37:37.476Z,8.10
2019-05-05T15:39:45.871Z,8.57
2019-05-05T15:41:50.156Z,7.10
2019-05-05T15:43:56.052Z,9.33
2019-05-05T15:45:59.294Z,6.40
2019-05-05T15:48:04.626Z,6.20
2019-05-05T15:50:08.719Z,9.17
2019-05-05T15:52:13.753Z,9.50
2019-05-05T15:54:19.329Z,6.10
2019-05-05T15:56:24.472Z,7.50
2019-05-05T15:58:28.403Z,9.10
2019-05-05T16:00:33.790Z,5.87
2019-05-05T16:02:37.858Z,9.47
2019-05-05T16:04:41.643Z,8.07
2019-05-05T16:06:46.127Z,14.03
2019-05-05T16:08:49.863Z,6.30
2019-05-05T16:10:54.624Z,11.23
2019-05-05T16:12:58.870Z,9.63
2019-05-05T16:15:10.223Z,12.03
2019-05-05T16:17:19.862Z,10.87
2019-05-05T16:19:27.917Z,5.67
2019-05-05T16:21:34.496Z,7.90
2019-05-05T16:23:43.635Z,12.17
2019-05-05T16:25:47.521Z,8.77
2019-05-05T16:27:51.269Z,6.50
2019-05-05T16:29:56.418Z,10.90
2019-05-05T16:32:00.202Z,7.60
2019-05-05T16:34:06.593Z,7.77
2019-05-05T16:36:10.373Z,5.70
2019-05-05T16:38:14.918Z,5.13
2019-05-05T16:40:18.836Z,4.67
2019-05-05T16:42:24.285Z,7.47
2019-05-05T16:44:29.040Z,6.30
2019-05-05T16:46:34.129Z,9.10
2019-05-05T16:48:38.115Z,10.63
2019-05-05T16:50:44.108Z,5.93
2019-05-05T16:52:54.487Z,4.70
2019-05-05T16:55:09.378Z,5.20
2019-05-05T16:57:14.436Z,11.10
2019-05-05T16:59:20.588Z,11.23
2019-05-05T17:01:24.470Z,11.63
2019-05-05T17:03:28.290Z,10.00
2019-05-05T17:05:32.016Z,8.80
2019-05-05T17:07:35.672Z,7.60
2019-05-05T17:09:39.358Z,7.23
2019-05-05T17:11:44.810Z,6.60
2019-05-05T17:13:50.164Z,9.10
2019-05-05T17:16:13.529Z,7.23
2019-05-05T17:18:37.458Z,9.90
2019-05-05T17:20:46.689Z,6.87
2019-05-05T17:22:58.388Z,14.33
2019-05-05T17:25:02.662Z,7.20
2019-05-05T17:27:06.331Z,7.53
2019-05-05T17:29:10.099Z,6.33
2019-05-05T17:31:13.839Z,5.60
2019-05-05T17:33:17.634Z,11.40
2019-05-05T17:35:21.458Z,7.37
2019-05-05T17:37:25.351Z,6.77
2019-05-05T17:39:30.819Z,11.03
2019-05-05T17:41:45.639Z,8.07
2019-05-05T17:43:57.144Z,7.60
2019-05-05T17:46:13.385Z,9.30
2019-05-05T17:48:18.896Z,9.60
2019-05-05T17:50:40.677Z,13.77
2019-05-05T17:53:03.099Z,16.20
2019-05-05T17:55:27.931Z,9.33
2019-05-05T17:57:31.991Z,7.63
2019-05-05T17:59:35.896Z,10.70
2019-05-05T18:01:39.524Z,11.73
2019-05-05T18:03:43.714Z,6.90
2019-05-05T18:06:05.281Z,7.63
2019-05-05T18:08:06.800Z,9.50
2019-05-05T18:10:13.524Z,14.43
2019-05-05T18:12:23.624Z,8.60
2019-05-05T18:14:29.795Z,9.40
2019-05-05T18:16:34.042Z,9.10
2019-05-05T18:18:38.289Z,13.60
2019-05-05T18:20:44.755Z,13.13
2019-05-05T18:22:49.724Z,8.83
2019-05-05T18:24:53.977Z,9.30
2019-05-05T18:26:58.919Z,10.27
2019-05-05T18:29:04.516Z,14.50
2019-05-05T18:31:08.532Z,7.73
2019-05-05T18:33:13.686Z,18.83
2019-05-05T18:35:18.309Z,11.70
2019-05-05T18:37:24.042Z,12.67
2019-05-05T18:39:27.755Z,13.90
2019-05-05T18:41:36.031Z,13.83
2019-05-05T18:43:47.372Z,11.30
2019-05-05T18:45:54.900Z,10.80
2019-05-05T18:47:59.917Z,12.30
2019-05-05T18:50:05.252Z,10.70
2019-05-05T18:52:09.087Z,15.47
2019-05-05T18:54:12.815Z,10.93
2019-05-05T18:56:16.536Z,12.00
2019-05-05T18:58:27.397Z,9.43
2019-05-05T19:00:43.938Z,10.00
2019-05-05T19:02:55.309Z,11.67
2019-05-05T19:05:16.735Z,8.17
2019-05-05T19:07:23.763Z,19.37
2019-05-05T19:09:28.105Z,14.70
2019-05-05T19:11:34.135Z,13.87
2019-05-05T19:13:39.181Z,9.73
2019-05-05T19:15:43.424Z,12.67
2019-05-05T19:17:47.258Z,10.10
2019-05-05T19:19:54.677Z,11.03
2019-05-05T19:21:59.444Z,16.13
2019-05-05T19:24:03.843Z,17.63
2019-05-05T19:26:07.993Z,15.87
2019-05-05T19:28:11.807Z,11.50
2019-05-05T19:30:17.418Z,15.70
2019-05-05T19:32:21.301Z,13.80
2019-05-05T19:34:25.222Z,18.77
2019-05-05T19:36:28.919Z,12.63
2019-05-05T19:38:34.391Z,9.57
2019-05-05T19:40:37.860Z,11.30
2019-05-05T19:42:41.630Z,11.03
2019-05-05T19:44:46.757Z,11.50
2019-05-05T19:47:01.468Z,8.20
2019-05-05T19:49:18.480Z,10.07
2019-05-05T19:51:23.956Z,11.47
2019-05-05T19:53:27.603Z,16.17
2019-05-05T19:55:31.302Z,7.67
2019-05-05T19:57:36.088Z,9.37
2019-05-05T19:59:40.020Z,18.73
2019-05-05T20:01:44.974Z,17.70
2019-05-05T20:03:48.929Z,11.30
2019-05-05T20:05:54.080Z,17.83
2019-05-05T20:07:58.143Z,9.13
2019-05-05T20:10:03.881Z,14.00
2019-05-05T20:12:07.256Z,10.60
2019-05-05T20:14:11.054Z,10.63
2019-05-05T20:16:25.186Z,9.50
2019-05-05T20:18:28.792Z,11.47
2019-05-05T20:20:33.651Z,12.53
2019-05-05T20:22:37.586Z,10.50
2019-05-05T20:24:41.238Z,14.50
2019-05-05T20:26:45.004Z,15.33
2019-05-05T20:28:48.672Z,10.30
2019-05-05T20:30:54.050Z,10.43
2019-05-05T20:33:05.104Z,11.50
2019-05-05T20:35:26.789Z,14.43
2019-05-05T20:37:37.838Z,11.60
2019-05-05T20:39:43.622Z,11.33
2019-05-05T20:41:47.037Z,15.70
2019-05-05T20:43:50.747Z,14.70
2019-05-05T20:45:54.640Z,11.80
2019-05-05T20:47:58.247Z,14.93
2019-05-05T20:50:01.820Z,10.90
2019-05-05T20:52:05.687Z,13.43
2019-05-05T20:54:09.277Z,10.53
2019-05-05T20:56:14.773Z,12.50
2019-05-05T20:58:18.253Z,15.10
2019-05-05T21:00:23.881Z,12.67
2019-05-05T21:02:28.433Z,11.43
2019-05-05T21:04:34.279Z,18.80
2019-05-05T21:06:37.585Z,13.07
2019-05-05T21:08:43.798Z,11.17
2019-05-05T21:10:46.918Z,8.20
2019-05-05T21:12:50.539Z,11.80
2019-05-05T21:14:54.457Z,10.90
2019-05-05T21:16:58.201Z,13.90
2019-05-05T21:19:01.930Z,10.07
2019-05-05T21:21:07.436Z,12.97
2019-05-05T21:23:18.700Z,11.73
2019-05-05T21:25:24.054Z,12.83
2019-05-05T21:27:27.680Z,10.23
2019-05-05T21:29:41.391Z,15.23
2019-05-05T21:31:38.528Z,12.77
2019-05-05T21:33:42.233Z,12.47
2019-05-05T21:35:45.906Z,13.73
2019-05-05T21:37:49.829Z,12.63
2019-05-05T21:39:55.144Z,12.17
2019-05-05T21:41:58.711Z,16.17
2019-05-05T21:44:03.794Z,9.93
2019-05-05T21:46:09.273Z,13.57
2019-05-05T21:48:13.663Z,14.87
2019-05-05T21:50:19.203Z,10.97
2019-05-05T21:52:39.741Z,10.47
2019-05-05T21:54:53.708Z,11.33
2019-05-05T21:57:00.555Z,10.67
2019-05-05T21:59:05.709Z,10.50
2019-05-05T22:01:15.006Z,12.00
2019-05-05T22:03:31.909Z,10.60
2019-05-05T22:05:35.624Z,10.83
2019-05-05T22:07:39.439Z,10.50
2019-05-05T22:09:45.217Z,10.90
2019-05-05T22:11:48.921Z,12.20
2019-05-05T22:13:53.981Z,9.33
2019-05-05T22:15:57.974Z,9.53
2019-05-05T22:18:03.577Z,9.80
2019-05-05T22:20:08.731Z,8.40
2019-05-05T22:22:14.638Z,10.93
2019-05-05T22:24:19.936Z,14.30
2019-05-05T22:26:23.982Z,9.77
2019-05-05T22:28:27.636Z,14.33
2019-05-05T22:30:31.338Z,9.37
2019-05-05T22:32:35.090Z,12.33
2019-05-05T22:34:38.772Z,10.00
2019-05-05T22:36:44.627Z,15.93
2019-05-05T22:38:47.888Z,13.67
2019-05-05T22:40:55.995Z,13.27
2019-05-05T22:42:57.013Z,14.47
2019-05-05T22:45:00.636Z,12.13
2019-05-05T22:47:04.780Z,12.63
2019-05-05T22:49:09.021Z,13.77
2019-05-05T22:51:14.462Z,8.90
2019-05-05T22:53:18.208Z,9.50
2019-05-05T22:55:24.744Z,12.80
2019-05-05T22:57:28.487Z,11.70
2019-05-05T22:59:32.322Z,14.67
2019-05-05T23:01:36.743Z,13.43
2019-05-05T23:03:46.458Z,12.77
2019-05-05T23:06:00.873Z,10.83
2019-05-05T23:08:05.177Z,14.67
2019-05-05T23:10:09.096Z,11.00
2019-05-05T23:12:14.103Z,8.90
2019-05-05T23:14:29.896Z,11.07
2019-05-05T23:16:37.935Z,13.10
2019-05-05T23:18:41.580Z,8.70
2019-05-05T23:20:49.643Z,11.73
2019-05-05T23:23:08.076Z,13.90
2019-05-05T23:25:19.272Z,12.83
2019-05-05T23:27:40.843Z,11.13
2019-05-05T23:29:44.637Z,12.87
2019-05-05T23:31:48.396Z,12.63
2019-05-05T23:33:54.826Z,11.73
2019-05-05T23:35:58.712Z,13.43
2019-05-05T23:38:03.526Z,11.33
2019-05-05T23:40:07.333Z,8.20
2019-05-05T23:42:10.934Z,12.63
2019-05-05T23:44:14.562Z,16.40
2019-05-05T23:46:18.329Z,13.20
2019-05-05T23:48:24.004Z,9.33
2019-05-05T23:50:27.300Z,8.80
2019-05-05T23:52:31.122Z,14.30
2019-05-05T23:54:34.768Z,8.20
2019-05-05T23:56:38.444Z,8.63
2019-05-05T23:58:44.157Z,15.60
